Aeroporto :
LOGIN :

Iscrizione | Disclaimer

   EN    FR    IT 

 










Sommario :    VFR   VFR Marginale   IFR   IFR Intensivo   IFR Molto Intensivo
Visibilità : 
Base nubi : 
>= 8 km
>= 3000ft
5 / 8 km
1000 / 3000 ft
1500m / 5 km
500 / 1000 ft
800 / 1500m
200 / 500 ft
< 800m
< 200 ft
Simboli :   Temporali  Nebbia  Neve Forte  Precipitazioni Forti  Vento > 20 kt
SIGMETs :   Varie  Temporali  Ghiacco  Turbolenza  Onda orograficha  Ceneri Vulcaniche






- Altitudine del aeroporto : 1506 ft
- Codice IATA : BUJ


DAAD - Bou Saada

ULTIMO METAR :
  • 231800Z 16011KT 8000 SCT026 32/04 Q1013

METARs OBSOLETI :
  • 231700Z 11012KT 8000 SCT026 33/04 Q1013
  • 231600Z 10012KT 8000 SCT026 34/05 Q1013
  • 231500Z 14009KT 8000 SCT026 34/04 Q1014
  • 231400Z 11007KT 8000 SCT026 33/06 Q1015

TAF TAF DAAD
Valido dal 23 a 18 ore il 24 a 03 ore UTC


231700Z 2318/2403 08006KT 8000 SCT026
PROB30
TEMPO 2318/2321 10015G25KT FEW033CB



MetMap, La meteo Aeronautica in un colpo d'occhio ! - Copyright ORBIFLY Dicembre 2007 - Disclaimer

ORBIFLY MET'MAP TEAM :

Programmazione e sviluppo : Alexandra Zaïnal
Concezione : Baudouin d'Aumeries
Supporto tecnico e logistico : Manuel Goepfert
Aiuto : Marc-Olivier Méhu
Aiuto per la traduzione : Arnaldo La Scala




FONTI E CREDITI :

   NOAA